sensor_id;sensor_type;location;lat;lon;timestamp;pressure;altitude;pressure_sealevel;temperature;humidity
73870;BME280;64924;42.140;24.762;2022-11-13T00:02:10;101265.34;;;12.11;64.36
73870;BME280;64924;42.140;24.762;2022-11-13T00:04:36;101253.56;;;12.02;64.36
73870;BME280;64924;42.140;24.762;2022-11-13T00:07:01;101252.38;;;12.05;64.31
73870;BME280;64924;42.140;24.762;2022-11-13T00:09:28;101249.00;;;12.11;63.96
73870;BME280;64924;42.140;24.762;2022-11-13T00:11:53;101266.38;;;12.10;63.79
73870;BME280;64924;42.140;24.762;2022-11-13T00:14:19;101260.25;;;12.16;63.76
73870;BME280;64924;42.140;24.762;2022-11-13T00:16:44;101265.00;;;12.14;63.80
73870;BME280;64924;42.140;24.762;2022-11-13T00:19:10;101261.44;;;12.14;63.64
73870;BME280;64924;42.140;24.762;2022-11-13T00:21:35;101245.25;;;12.12;63.96
73870;BME280;64924;42.140;24.762;2022-11-13T00:24:01;101252.06;;;12.16;63.86
73870;BME280;64924;42.140;24.762;2022-11-13T00:26:29;101192.56;;;11.79;63.93
73870;BME280;64924;42.140;24.762;2022-11-13T00:28:58;101253.44;;;12.20;64.04
73870;BME280;64924;42.140;24.762;2022-11-13T00:31:24;101256.19;;;12.20;64.02
73870;BME280;64924;42.140;24.762;2022-11-13T00:33:51;101262.16;;;12.24;63.75
73870;BME280;64924;42.140;24.762;2022-11-13T00:36:25;101261.78;;;12.27;63.77
73870;BME280;64924;42.140;24.762;2022-11-13T00:38:50;101256.00;;;12.22;64.06
73870;BME280;64924;42.140;24.762;2022-11-13T00:41:17;101252.25;;;12.23;63.66
73870;BME280;64924;42.140;24.762;2022-11-13T00:43:42;101253.59;;;12.27;63.73
73870;BME280;64924;42.140;24.762;2022-11-13T00:46:08;101251.91;;;12.26;63.79
73870;BME280;64924;42.140;24.762;2022-11-13T00:48:34;101250.56;;;12.22;63.87
73870;BME280;64924;42.140;24.762;2022-11-13T00:51:00;101254.81;;;12.24;64.20
73870;BME280;64924;42.140;24.762;2022-11-13T00:53:26;101251.03;;;12.25;63.85
73870;BME280;64924;42.140;24.762;2022-11-13T00:55:51;101249.72;;;12.21;64.06
73870;BME280;64924;42.140;24.762;2022-11-13T00:58:17;101241.00;;;12.26;64.07
73870;BME280;64924;42.140;24.762;2022-11-13T01:00:44;101252.09;;;12.32;64.05
73870;BME280;64924;42.140;24.762;2022-11-13T01:03:10;101203.19;;;12.07;63.91
73870;BME280;64924;42.140;24.762;2022-11-13T01:05:41;101248.50;;;12.32;63.69
73870;BME280;64924;42.140;24.762;2022-11-13T01:08:08;101257.38;;;12.34;64.03
73870;BME280;64924;42.140;24.762;2022-11-13T01:10:38;101248.69;;;12.30;64.39
73870;BME280;64924;42.140;24.762;2022-11-13T01:13:04;101254.47;;;12.27;64.24
73870;BME280;64924;42.140;24.762;2022-11-13T01:15:29;101234.69;;;12.25;64.50
73870;BME280;64924;42.140;24.762;2022-11-13T01:17:54;101216.13;;;12.04;64.07
73870;BME280;64924;42.140;24.762;2022-11-13T01:20:23;101246.97;;;12.21;64.33
73870;BME280;64924;42.140;24.762;2022-11-13T01:22:49;101245.44;;;12.19;64.31
73870;BME280;64924;42.140;24.762;2022-11-13T01:25:16;101243.75;;;12.18;64.72
73870;BME280;64924;42.140;24.762;2022-11-13T01:27:42;101233.16;;;12.15;64.59
73870;BME280;64924;42.140;24.762;2022-11-13T01:30:08;101247.16;;;12.20;64.55
73870;BME280;64924;42.140;24.762;2022-11-13T01:32:34;101248.50;;;12.16;64.73
73870;BME280;64924;42.140;24.762;2022-11-13T01:34:59;101246.97;;;12.13;64.71
73870;BME280;64924;42.140;24.762;2022-11-13T01:37:25;101242.00;;;12.09;64.90
73870;BME280;64924;42.140;24.762;2022-11-13T01:39:51;101249.69;;;12.13;64.93
73870;BME280;64924;42.140;24.762;2022-11-13T01:42:16;101228.72;;;12.05;65.04
73870;BME280;64924;42.140;24.762;2022-11-13T01:44:56;101233.50;;;12.12;64.75
73870;BME280;64924;42.140;24.762;2022-11-13T01:47:24;101236.91;;;12.14;64.79
73870;BME280;64924;42.140;24.762;2022-11-13T01:49:52;101233.84;;;12.09;64.99
73870;BME280;64924;42.140;24.762;2022-11-13T01:52:24;101230.75;;;12.03;65.18
73870;BME280;64924;42.140;24.762;2022-11-13T01:55:01;101237.25;;;12.11;65.04
73870;BME280;64924;42.140;24.762;2022-11-13T01:57:27;101229.91;;;12.03;65.17
73870;BME280;64924;42.140;24.762;2022-11-13T01:59:57;101238.78;;;12.13;65.17
73870;BME280;64924;42.140;24.762;2022-11-13T02:02:25;101227.38;;;12.10;65.29
73870;BME280;64924;42.140;24.762;2022-11-13T02:04:50;101183.38;;;11.88;64.99
73870;BME280;64924;42.140;24.762;2022-11-13T02:07:18;101225.16;;;12.13;64.96
73870;BME280;64924;42.140;24.762;2022-11-13T02:09:49;101233.84;;;12.09;65.17
73870;BME280;64924;42.140;24.762;2022-11-13T02:12:20;101225.66;;;12.09;65.01
73870;BME280;64924;42.140;24.762;2022-11-13T02:14:50;101224.66;;;12.10;65.24
73870;BME280;64924;42.140;24.762;2022-11-13T02:17:26;101229.94;;;12.11;65.10
73870;BME280;64924;42.140;24.762;2022-11-13T02:19:57;101238.44;;;12.08;65.31
73870;BME280;64924;42.140;24.762;2022-11-13T02:22:35;101236.56;;;12.09;65.48
73870;BME280;64924;42.140;24.762;2022-11-13T02:25:03;101228.56;;;12.15;65.39
73870;BME280;64924;42.140;24.762;2022-11-13T02:27:40;101222.09;;;12.16;65.14
73870;BME280;64924;42.140;24.762;2022-11-13T02:30:22;101222.59;;;12.12;65.25
73870;BME280;64924;42.140;24.762;2022-11-13T02:32:49;101220.72;;;12.04;65.60
73870;BME280;64924;42.140;24.762;2022-11-13T02:35:19;101216.44;;;12.01;65.61
73870;BME280;64924;42.140;24.762;2022-11-13T02:37:46;101217.63;;;11.99;65.62
73870;BME280;64924;42.140;24.762;2022-11-13T02:40:12;101226.31;;;11.94;65.89
73870;BME280;64924;42.140;24.762;2022-11-13T02:42:38;101228.38;;;12.00;65.74
73870;BME280;64924;42.140;24.762;2022-11-13T02:45:04;101232.78;;;12.01;65.96
73870;BME280;64924;42.140;24.762;2022-11-13T02:47:30;101212.19;;;11.99;65.61
73870;BME280;64924;42.140;24.762;2022-11-13T02:49:56;101223.59;;;12.02;65.75
73870;BME280;64924;42.140;24.762;2022-11-13T02:52:22;101229.25;;;12.09;65.41
73870;BME280;64924;42.140;24.762;2022-11-13T02:54:48;101233.16;;;12.07;65.34
73870;BME280;64924;42.140;24.762;2022-11-13T02:57:13;101229.75;;;12.04;65.40
73870;BME280;64924;42.140;24.762;2022-11-13T02:59:39;101219.34;;;12.08;65.39
73870;BME280;64924;42.140;24.762;2022-11-13T03:02:05;101215.44;;;12.11;65.10
73870;BME280;64924;42.140;24.762;2022-11-13T03:04:30;101225.19;;;12.21;65.09
73870;BME280;64924;42.140;24.762;2022-11-13T03:06:56;101219.38;;;12.16;65.18
73870;BME280;64924;42.140;24.762;2022-11-13T03:09:21;101206.09;;;12.13;65.23
73870;BME280;64924;42.140;24.762;2022-11-13T03:11:46;101206.63;;;12.17;64.85
73870;BME280;64924;42.140;24.762;2022-11-13T03:14:12;101217.31;;;12.26;64.87
73870;BME280;64924;42.140;24.762;2022-11-13T03:16:37;101212.91;;;12.25;64.67
73870;BME280;64924;42.140;24.762;2022-11-13T03:19:03;101199.28;;;12.25;64.92
73870;BME280;64924;42.140;24.762;2022-11-13T03:21:29;101206.09;;;12.29;64.86
73870;BME280;64924;42.140;24.762;2022-11-13T03:23:55;101215.81;;;12.32;65.01
73870;BME280;64924;42.140;24.762;2022-11-13T03:26:21;101205.59;;;12.34;64.90
73870;BME280;64924;42.140;24.762;2022-11-13T03:28:46;101207.28;;;12.35;64.63
73870;BME280;64924;42.140;24.762;2022-11-13T03:31:12;101211.41;;;12.23;65.07
73870;BME280;64924;42.140;24.762;2022-11-13T03:33:37;101184.13;;;12.07;65.14
73870;BME280;64924;42.140;24.762;2022-11-13T03:36:03;101177.97;;;12.04;65.19
73870;BME280;64924;42.140;24.762;2022-11-13T03:38:30;101217.69;;;12.23;65.13
73870;BME280;64924;42.140;24.762;2022-11-13T03:40:55;101213.75;;;12.10;65.72
73870;BME280;64924;42.140;24.762;2022-11-13T03:43:22;101220.88;;;12.02;66.11
73870;BME280;64924;42.140;24.762;2022-11-13T03:45:48;101207.03;;;11.80;66.56
73870;BME280;64924;42.140;24.762;2022-11-13T03:48:14;101216.22;;;11.79;66.89
73870;BME280;64924;42.140;24.762;2022-11-13T03:50:46;101224.25;;;11.80;67.07
73870;BME280;64924;42.140;24.762;2022-11-13T03:53:13;101187.53;;;11.58;66.75
73870;BME280;64924;42.140;24.762;2022-11-13T03:55:39;101125.34;;;11.29;66.74
73870;BME280;64924;42.140;24.762;2022-11-13T03:58:04;101215.38;;;11.78;66.92
73870;BME280;64924;42.140;24.762;2022-11-13T04:00:30;101215.38;;;11.78;67.01
73870;BME280;64924;42.140;24.762;2022-11-13T04:02:55;101206.22;;;11.87;66.72
73870;BME280;64924;42.140;24.762;2022-11-13T04:05:21;101204.84;;;11.91;66.37
73870;BME280;64924;42.140;24.762;2022-11-13T04:07:47;101201.13;;;12.00;66.07
73870;BME280;64924;42.140;24.762;2022-11-13T04:10:13;101202.50;;;12.04;66.38
73870;BME280;64924;42.140;24.762;2022-11-13T04:12:39;101198.06;;;12.03;66.13
73870;BME280;64924;42.140;24.762;2022-11-13T04:15:05;101217.31;;;12.10;65.84
73870;BME280;64924;42.140;24.762;2022-11-13T04:17:31;101174.56;;;11.86;66.41
73870;BME280;64924;42.140;24.762;2022-11-13T04:19:56;101217.31;;;12.02;66.21
73870;BME280;64924;42.140;24.762;2022-11-13T04:22:22;101212.50;;;11.96;66.58
73870;BME280;64924;42.140;24.762;2022-11-13T04:24:47;101206.88;;;11.89;66.45
73870;BME280;64924;42.140;24.762;2022-11-13T04:27:13;101215.44;;;12.02;66.33
73870;BME280;64924;42.140;24.762;2022-11-13T04:29:38;101218.84;;;12.04;66.38
73870;BME280;64924;42.140;24.762;2022-11-13T04:32:04;101227.03;;;12.13;66.13
73870;BME280;64924;42.140;24.762;2022-11-13T04:34:30;101187.31;;;11.94;65.72
73870;BME280;64924;42.140;24.762;2022-11-13T04:36:55;101223.97;;;12.08;66.21
73870;BME280;64924;42.140;24.762;2022-11-13T04:39:21;101229.88;;;11.87;66.69
73870;BME280;64924;42.140;24.762;2022-11-13T04:41:46;101228.34;;;11.84;66.82
73870;BME280;64924;42.140;24.762;2022-11-13T04:44:30;101209.94;;;11.78;66.85
73870;BME280;64924;42.140;24.762;2022-11-13T04:46:56;101235.13;;;11.80;66.59
73870;BME280;64924;42.140;24.762;2022-11-13T04:49:21;101230.63;;;11.71;67.19
73870;BME280;64924;42.140;24.762;2022-11-13T04:51:47;101230.31;;;11.74;67.24
73870;BME280;64924;42.140;24.762;2022-11-13T04:54:12;101231.72;;;11.78;67.25
73870;BME280;64924;42.140;24.762;2022-11-13T04:56:37;101195.66;;;11.42;67.57
73870;BME280;64924;42.140;24.762;2022-11-13T04:59:03;101238.25;;;11.59;67.62
73870;BME280;64924;42.140;24.762;2022-11-13T05:01:28;101237.59;;;11.65;67.39
73870;BME280;64924;42.140;24.762;2022-11-13T05:03:54;101231.16;;;11.75;67.23
73870;BME280;64924;42.140;24.762;2022-11-13T05:06:19;101229.44;;;11.73;67.20
73870;BME280;64924;42.140;24.762;2022-11-13T05:08:45;101236.66;;;11.83;66.95
73870;BME280;64924;42.140;24.762;2022-11-13T05:11:12;101236.44;;;11.76;67.25
73870;BME280;64924;42.140;24.762;2022-11-13T05:13:37;101192.78;;;11.52;67.09
73870;BME280;64924;42.140;24.762;2022-11-13T05:16:08;101225.88;;;11.73;67.28
73870;BME280;64924;42.140;24.762;2022-11-13T05:18:35;101223.00;;;11.75;67.53
73870;BME280;64924;42.140;24.762;2022-11-13T05:21:02;101233.16;;;11.64;67.99
73870;BME280;64924;42.140;24.762;2022-11-13T05:23:27;101223.94;;;11.57;67.75
73870;BME280;64924;42.140;24.762;2022-11-13T05:26:09;101229.63;;;11.72;67.41
73870;BME280;64924;42.140;24.762;2022-11-13T05:28:35;101226.22;;;11.70;67.72
73870;BME280;64924;42.140;24.762;2022-11-13T05:31:12;101233.72;;;11.76;67.15
73870;BME280;64924;42.140;24.762;2022-11-13T05:33:39;101203.00;;;11.50;67.39
73870;BME280;64924;42.140;24.762;2022-11-13T05:36:10;101239.88;;;11.78;67.36
73870;BME280;64924;42.140;24.762;2022-11-13T05:38:37;101205.03;;;11.56;67.20
73870;BME280;64924;42.140;24.762;2022-11-13T05:41:04;101237.69;;;11.90;67.14
73870;BME280;64924;42.140;24.762;2022-11-13T05:43:30;101246.56;;;12.00;66.42
73870;BME280;64924;42.140;24.762;2022-11-13T05:46:24;101244.94;;;12.15;66.14
73870;BME280;64924;42.140;24.762;2022-11-13T05:48:54;101242.38;;;12.14;66.14
73870;BME280;64924;42.140;24.762;2022-11-13T05:51:23;101238.25;;;12.10;65.97
73870;BME280;64924;42.140;24.762;2022-11-13T05:53:49;101244.44;;;12.20;65.84
73870;BME280;64924;42.140;24.762;2022-11-13T05:58:45;101230.97;;;11.68;67.22
73870;BME280;64924;42.140;24.762;2022-11-13T06:01:20;101242.28;;;11.89;67.32
73870;BME280;64924;42.140;24.762;2022-11-13T06:03:46;101242.81;;;11.93;66.52
73870;BME280;64924;42.140;24.762;2022-11-13T06:06:14;101251.22;;;12.16;66.28
73870;BME280;64924;42.140;24.762;2022-11-13T06:08:40;101248.00;;;12.28;65.64
73870;BME280;64924;42.140;24.762;2022-11-13T06:11:09;101249.56;;;12.47;65.29
73870;BME280;64924;42.140;24.762;2022-11-13T06:13:36;101246.16;;;12.61;64.30
73870;BME280;64924;42.140;24.762;2022-11-13T06:18:30;101253.81;;;12.90;63.92
73870;BME280;64924;42.140;24.762;2022-11-13T06:21:00;101245.75;;;13.29;63.08
73870;BME280;64924;42.140;24.762;2022-11-13T06:23:26;101253.50;;;13.65;61.70
73870;BME280;64924;42.140;24.762;2022-11-13T06:25:52;101247.03;;;13.97;60.80
73870;BME280;64924;42.140;24.762;2022-11-13T06:28:17;101251.59;;;14.04;60.10
73870;BME280;64924;42.140;24.762;2022-11-13T06:30:43;101240.06;;;14.17;59.79
73870;BME280;64924;42.140;24.762;2022-11-13T06:33:08;101255.16;;;14.36;59.16
73870;BME280;64924;42.140;24.762;2022-11-13T06:35:34;101260.88;;;14.49;59.10
73870;BME280;64924;42.140;24.762;2022-11-13T06:37:59;101248.19;;;14.79;57.99
73870;BME280;64924;42.140;24.762;2022-11-13T06:40:25;101256.94;;;15.12;57.28
73870;BME280;64924;42.140;24.762;2022-11-13T06:42:51;101224.34;;;15.02;56.65
73870;BME280;64924;42.140;24.762;2022-11-13T06:45:17;101261.50;;;15.49;56.06
73870;BME280;64924;42.140;24.762;2022-11-13T06:47:42;101263.34;;;16.08;54.92
73870;BME280;64924;42.140;24.762;2022-11-13T06:50:08;101248.81;;;16.64;53.22
73870;BME280;64924;42.140;24.762;2022-11-13T06:52:34;101246.00;;;17.07;51.92
73870;BME280;64924;42.140;24.762;2022-11-13T06:54:59;101200.78;;;17.10;50.57
73870;BME280;64924;42.140;24.762;2022-11-13T06:57:25;101232.72;;;17.73;49.37
73870;BME280;64924;42.140;24.762;2022-11-13T06:59:51;101231.31;;;17.97;48.89
73870;BME280;64924;42.140;24.762;2022-11-13T07:02:16;101231.44;;;18.36;48.37
73870;BME280;64924;42.140;24.762;2022-11-13T07:04:42;101184.66;;;18.36;47.51
73870;BME280;64924;42.140;24.762;2022-11-13T07:07:07;101225.38;;;18.81;46.66
73870;BME280;64924;42.140;24.762;2022-11-13T07:09:34;101231.09;;;18.86;46.27
73870;BME280;64924;42.140;24.762;2022-11-13T07:11:59;101194.66;;;18.77;46.34
73870;BME280;64924;42.140;24.762;2022-11-13T07:14:25;101223.91;;;18.78;46.30
73870;BME280;64924;42.140;24.762;2022-11-13T07:16:50;101187.38;;;18.30;46.50
73870;BME280;64924;42.140;24.762;2022-11-13T07:19:16;101199.22;;;18.17;47.53
73870;BME280;64924;42.140;24.762;2022-11-13T07:21:41;101203.06;;;18.36;46.95
73870;BME280;64924;42.140;24.762;2022-11-13T07:24:07;101205.63;;;18.44;46.94
73870;BME280;64924;42.140;24.762;2022-11-13T07:26:32;101221.56;;;18.82;46.34
73870;BME280;64924;42.140;24.762;2022-11-13T07:28:58;101212.84;;;18.98;45.69
73870;BME280;64924;42.140;24.762;2022-11-13T07:31:23;101209.03;;;19.12;44.57
73870;BME280;64924;42.140;24.762;2022-11-13T07:33:49;101194.84;;;19.15;44.86
73870;BME280;64924;42.140;24.762;2022-11-13T07:36:16;101210.25;;;19.56;44.24
73870;BME280;64924;42.140;24.762;2022-11-13T07:38:41;101209.72;;;19.85;43.78
73870;BME280;64924;42.140;24.762;2022-11-13T07:41:07;101181.91;;;19.87;42.70
73870;BME280;64924;42.140;24.762;2022-11-13T07:43:33;101213.13;;;20.19;42.78
73870;BME280;64924;42.140;24.762;2022-11-13T07:45:59;101210.25;;;20.45;42.28
73870;BME280;64924;42.140;24.762;2022-11-13T07:48:35;101188.63;;;20.35;42.13
73870;BME280;64924;42.140;24.762;2022-11-13T07:51:02;101199.28;;;19.94;42.94
73870;BME280;64924;42.140;24.762;2022-11-13T07:53:30;101210.25;;;19.56;43.65
73870;BME280;64924;42.140;24.762;2022-11-13T07:55:59;101213.91;;;19.23;44.35
73870;BME280;64924;42.140;24.762;2022-11-13T07:58:24;101214.44;;;18.13;46.49
73870;BME280;64924;42.140;24.762;2022-11-13T08:00:50;101210.97;;;17.44;48.32
73870;BME280;64924;42.140;24.762;2022-11-13T08:03:16;101217.25;;;17.03;49.16
73870;BME280;64924;42.140;24.762;2022-11-13T08:05:42;101216.09;;;16.91;49.97
73870;BME280;64924;42.140;24.762;2022-11-13T08:08:11;101220.00;;;17.03;49.94
73870;BME280;64924;42.140;24.762;2022-11-13T08:10:37;101217.06;;;17.11;49.13
73870;BME280;64924;42.140;24.762;2022-11-13T08:13:05;101219.38;;;17.35;49.11
73870;BME280;64924;42.140;24.762;2022-11-13T08:15:32;101215.56;;;17.36;48.81
73870;BME280;64924;42.140;24.762;2022-11-13T08:17:59;101221.50;;;17.40;48.90
73870;BME280;64924;42.140;24.762;2022-11-13T08:20:28;101214.13;;;17.13;49.63
73870;BME280;64924;42.140;24.762;2022-11-13T08:23:01;101214.81;;;17.21;49.54
73870;BME280;64924;42.140;24.762;2022-11-13T08:25:27;101223.97;;;17.00;50.32
73870;BME280;64924;42.140;24.762;2022-11-13T08:27:53;101186.81;;;16.77;50.26
73870;BME280;64924;42.140;24.762;2022-11-13T08:30:19;101213.19;;;16.99;50.22
73870;BME280;64924;42.140;24.762;2022-11-13T08:32:46;101219.16;;;17.09;49.79
73870;BME280;64924;42.140;24.762;2022-11-13T08:35:12;101220.06;;;17.16;49.45
73870;BME280;64924;42.140;24.762;2022-11-13T08:37:39;101208.28;;;17.22;49.52
73870;BME280;64924;42.140;24.762;2022-11-13T08:40:05;101211.19;;;17.14;49.62
73870;BME280;64924;42.140;24.762;2022-11-13T08:42:31;101221.06;;;16.81;50.23
73870;BME280;64924;42.140;24.762;2022-11-13T08:44:56;101217.19;;;16.68;50.58
73870;BME280;64924;42.140;24.762;2022-11-13T08:47:22;101190.63;;;16.54;50.35
73870;BME280;64924;42.140;24.762;2022-11-13T08:49:47;101211.19;;;16.86;49.98
73870;BME280;64924;42.140;24.762;2022-11-13T08:52:13;101215.38;;;17.10;49.94
73870;BME280;64924;42.140;24.762;2022-11-13T08:54:40;101186.94;;;17.24;49.12
73870;BME280;64924;42.140;24.762;2022-11-13T08:57:06;101201.47;;;17.53;48.26
73870;BME280;64924;42.140;24.762;2022-11-13T08:59:31;101204.41;;;17.86;47.58
73870;BME280;64924;42.140;24.762;2022-11-13T09:01:57;101200.69;;;18.20;47.30
73870;BME280;64924;42.140;24.762;2022-11-13T09:04:24;101206.22;;;18.33;47.42
73870;BME280;64924;42.140;24.762;2022-11-13T09:06:50;101204.03;;;18.02;48.20
73870;BME280;64924;42.140;24.762;2022-11-13T09:09:17;101203.34;;;17.80;48.70
73870;BME280;64924;42.140;24.762;2022-11-13T09:11:42;101202.91;;;17.42;49.58
73870;BME280;64924;42.140;24.762;2022-11-13T09:14:08;101189.22;;;17.14;50.29
73870;BME280;64924;42.140;24.762;2022-11-13T09:16:33;101196.16;;;17.10;50.35
73870;BME280;64924;42.140;24.762;2022-11-13T09:18:59;101199.22;;;16.94;50.82
73870;BME280;64924;42.140;24.762;2022-11-13T09:21:24;101177.53;;;16.78;51.03
73870;BME280;64924;42.140;24.762;2022-11-13T09:23:50;101195.72;;;16.79;51.24
73870;BME280;64924;42.140;24.762;2022-11-13T09:26:16;101146.97;;;16.59;51.38
73870;BME280;64924;42.140;24.762;2022-11-13T09:28:41;101185.84;;;16.84;50.99
73870;BME280;64924;42.140;24.762;2022-11-13T09:31:07;101146.66;;;16.69;51.27
73870;BME280;64924;42.140;24.762;2022-11-13T09:33:33;101180.69;;;17.02;51.16
73870;BME280;64924;42.140;24.762;2022-11-13T09:35:58;101177.75;;;17.04;50.58
73870;BME280;64924;42.140;24.762;2022-11-13T09:38:24;101169.72;;;17.09;50.41
73870;BME280;64924;42.140;24.762;2022-11-13T09:46:37;101149.69;;;17.15;50.32
73870;BME280;64924;42.140;24.762;2022-11-13T09:51:35;101156.38;;;16.99;51.24
73870;BME280;64924;42.140;24.762;2022-11-13T09:54:11;101153.25;;;17.09;50.81
73870;BME280;64924;42.140;24.762;2022-11-13T09:56:58;101144.41;;;17.14;50.79
73870;BME280;64924;42.140;24.762;2022-11-13T10:02:16;101126.78;;;16.95;50.33
73870;BME280;64924;42.140;24.762;2022-11-13T10:09:57;101139.97;;;17.06;49.84
73870;BME280;64924;42.140;24.762;2022-11-13T10:12:26;101137.63;;;17.10;49.35
73870;BME280;64924;42.140;24.762;2022-11-13T10:14:56;101137.66;;;16.82;49.82
73870;BME280;64924;42.140;24.762;2022-11-13T10:20:46;101140.88;;;16.85;50.49
73870;BME280;64924;42.140;24.762;2022-11-13T10:25:39;101127.28;;;17.05;49.17
73870;BME280;64924;42.140;24.762;2022-11-13T10:28:21;101123.69;;;17.11;49.41
73870;BME280;64924;42.140;24.762;2022-11-13T10:34:02;101110.56;;;17.00;49.79
73870;BME280;64924;42.140;24.762;2022-11-13T10:39:03;101096.63;;;17.01;48.55
73870;BME280;64924;42.140;24.762;2022-11-13T10:41:29;101121.59;;;16.79;48.95
73870;BME280;64924;42.140;24.762;2022-11-13T10:44:05;101117.25;;;16.63;49.86
73870;BME280;64924;42.140;24.762;2022-11-13T10:46:31;101109.75;;;16.50;50.24
73870;BME280;64924;42.140;24.762;2022-11-13T10:49:08;101103.06;;;16.31;51.52
73870;BME280;64924;42.140;24.762;2022-11-13T10:51:34;101091.44;;;16.29;51.54
73870;BME280;64924;42.140;24.762;2022-11-13T10:54:23;101060.78;;;15.98;52.57
73870;BME280;64924;42.140;24.762;2022-11-13T10:57:01;101084.41;;;15.99;52.95
73870;BME280;64924;42.140;24.762;2022-11-13T10:59:37;101077.16;;;16.13;52.72
73870;BME280;64924;42.140;24.762;2022-11-13T11:04:44;101076.56;;;16.45;51.42
73870;BME280;64924;42.140;24.762;2022-11-13T11:07:20;101081.78;;;16.61;50.17
73870;BME280;64924;42.140;24.762;2022-11-13T11:09:47;101045.63;;;16.23;49.01
73870;BME280;64924;42.140;24.762;2022-11-13T11:12:16;101073.84;;;16.45;49.48
73870;BME280;64924;42.140;24.762;2022-11-13T11:17:45;101038.50;;;16.08;50.43
73870;BME280;64924;42.140;24.762;2022-11-13T11:23:13;101069.25;;;16.03;51.37
73870;BME280;64924;42.140;24.762;2022-11-13T11:25:56;101064.38;;;15.98;50.67
73870;BME280;64924;42.140;24.762;2022-11-13T11:28:33;101059.03;;;15.90;51.01
73870;BME280;64924;42.140;24.762;2022-11-13T11:33:52;101050.31;;;15.59;51.09
73870;BME280;64924;42.140;24.762;2022-11-13T11:36:32;101048.06;;;15.69;51.17
73870;BME280;64924;42.140;24.762;2022-11-13T11:41:37;101045.91;;;15.64;50.55
73870;BME280;64924;42.140;24.762;2022-11-13T11:46:54;101039.41;;;15.87;49.99
73870;BME280;64924;42.140;24.762;2022-11-13T11:49:21;101012.19;;;15.85;49.69
73870;BME280;64924;42.140;24.762;2022-11-13T12:07:45;101012.91;;;16.22;50.85
73870;BME280;64924;42.140;24.762;2022-11-13T12:12:59;101014.81;;;16.56;50.00
73870;BME280;64924;42.140;24.762;2022-11-13T12:21:00;100990.38;;;16.61;49.67
73870;BME280;64924;42.140;24.762;2022-11-13T12:23:39;101001.75;;;16.58;49.81
73870;BME280;64924;42.140;24.762;2022-11-13T12:29:10;101000.16;;;16.42;50.18
73870;BME280;64924;42.140;24.762;2022-11-13T12:32:22;100998.56;;;16.54;49.46
73870;BME280;64924;42.140;24.762;2022-11-13T12:34:53;100987.09;;;16.44;49.45
73870;BME280;64924;42.140;24.762;2022-11-13T12:40:05;100981.94;;;16.28;50.36
73870;BME280;64924;42.140;24.762;2022-11-13T12:42:51;100986.78;;;16.26;50.59
73870;BME280;64924;42.140;24.762;2022-11-13T12:50:39;100983.47;;;16.65;49.24
73870;BME280;64924;42.140;24.762;2022-11-13T12:53:08;100977.19;;;16.84;49.01
73870;BME280;64924;42.140;24.762;2022-11-13T12:55:39;100943.78;;;16.74;48.34
73870;BME280;64924;42.140;24.762;2022-11-13T13:00:55;100979.22;;;17.17;46.86
73870;BME280;64924;42.140;24.762;2022-11-13T13:07:17;100941.81;;;17.02;47.01
73870;BME280;64924;42.140;24.762;2022-11-13T13:12:29;100978.28;;;16.90;46.74
73870;BME280;64924;42.140;24.762;2022-11-13T13:18:08;100933.59;;;16.61;46.10
73870;BME280;64924;42.140;24.762;2022-11-13T13:20:40;100963.03;;;16.81;46.73
73870;BME280;64924;42.140;24.762;2022-11-13T13:23:10;100926.47;;;16.74;46.35
73870;BME280;64924;42.140;24.762;2022-11-13T13:25:37;100959.66;;;16.79;47.10
73870;BME280;64924;42.140;24.762;2022-11-13T13:28:16;100959.00;;;16.77;47.61
73870;BME280;64924;42.140;24.762;2022-11-13T13:30:53;100966.19;;;16.78;48.27
73870;BME280;64924;42.140;24.762;2022-11-13T13:43:52;100954.28;;;17.05;45.91
73870;BME280;64924;42.140;24.762;2022-11-13T13:46:22;100954.91;;;17.07;46.21
73870;BME280;64924;42.140;24.762;2022-11-13T13:48:53;100943.72;;;17.02;46.18
73870;BME280;64924;42.140;24.762;2022-11-13T13:51:30;100951.53;;;17.05;46.54
73870;BME280;64924;42.140;24.762;2022-11-13T13:53:59;100955.44;;;16.83;47.48
73870;BME280;64924;42.140;24.762;2022-11-13T13:56:26;100940.19;;;16.74;47.40
73870;BME280;64924;42.140;24.762;2022-11-13T13:58:52;100938.94;;;16.69;47.45
73870;BME280;64924;42.140;24.762;2022-11-13T14:01:32;100945.69;;;16.74;47.45
73870;BME280;64924;42.140;24.762;2022-11-13T14:04:13;100946.13;;;16.70;47.71
73870;BME280;64924;42.140;24.762;2022-11-13T14:06:51;100916.16;;;16.41;47.82
73870;BME280;64924;42.140;24.762;2022-11-13T14:09:19;100953.59;;;16.55;48.09
73870;BME280;64924;42.140;24.762;2022-11-13T14:11:45;100938.41;;;16.53;48.05
73870;BME280;64924;42.140;24.762;2022-11-13T14:14:30;100948.63;;;16.65;47.74
73870;BME280;64924;42.140;24.762;2022-11-13T14:16:59;100950.91;;;16.62;47.81
73870;BME280;64924;42.140;24.762;2022-11-13T14:19:26;100912.59;;;16.41;47.76
73870;BME280;64924;42.140;24.762;2022-11-13T14:21:59;100943.91;;;16.59;47.93
73870;BME280;64924;42.140;24.762;2022-11-13T14:24:30;100954.41;;;16.49;48.39
73870;BME280;64924;42.140;24.762;2022-11-13T14:26:59;100946.34;;;16.41;48.61
73870;BME280;64924;42.140;24.762;2022-11-13T14:32:19;100952.47;;;16.43;48.78
73870;BME280;64924;42.140;24.762;2022-11-13T14:34:52;100896.34;;;16.04;49.25
73870;BME280;64924;42.140;24.762;2022-11-13T14:37:30;100951.84;;;16.41;49.07